createdAt,value
2018-11-07T00:00:09.572Z,24.32
2018-11-07T00:02:38.553Z,24.60
2018-11-07T00:05:09.118Z,21.07
2018-11-07T00:07:38.039Z,20.17
2018-11-07T00:10:07.599Z,19.20
2018-11-07T00:12:38.391Z,16.57
2018-11-07T00:15:09.428Z,17.13
2018-11-07T00:17:38.848Z,18.17
2018-11-07T00:20:09.499Z,13.67
2018-11-07T00:22:39.073Z,14.53
2018-11-07T00:25:08.997Z,14.07
2018-11-07T00:27:37.942Z,13.27
2018-11-07T00:30:07.483Z,11.30
2018-11-07T00:32:36.454Z,11.67
2018-11-07T00:35:06.583Z,11.77
2018-11-07T00:37:36.464Z,13.67
2018-11-07T00:40:05.210Z,13.00
2018-11-07T00:42:33.781Z,12.78
2018-11-07T00:45:02.637Z,12.33
2018-11-07T00:47:31.466Z,12.03
2018-11-07T00:50:00.346Z,13.70
2018-11-07T00:52:28.989Z,12.77
2018-11-07T00:55:00.269Z,12.10
2018-11-07T00:57:29.083Z,12.27
2018-11-07T00:59:57.906Z,12.60
2018-11-07T01:02:26.760Z,11.97
2018-11-07T01:04:55.913Z,13.10
2018-11-07T01:07:24.977Z,11.80
2018-11-07T01:09:54.302Z,11.50
2018-11-07T01:12:23.589Z,12.10
2018-11-07T01:14:52.812Z,11.95
2018-11-07T01:17:21.647Z,13.07
2018-11-07T01:19:50.443Z,11.87
2018-11-07T01:22:19.681Z,10.20
2018-11-07T01:24:48.686Z,10.13
2018-11-07T01:27:17.903Z,10.10
2018-11-07T01:29:46.786Z,9.40
2018-11-07T01:32:15.811Z,9.20
2018-11-07T01:34:44.674Z,11.03
2018-11-07T01:37:13.502Z,10.40
2018-11-07T01:39:42.450Z,10.67
2018-11-07T01:42:11.123Z,10.40
2018-11-07T01:44:40.104Z,10.83
2018-11-07T01:47:09.402Z,9.97
2018-11-07T01:49:38.393Z,10.33
2018-11-07T01:52:07.144Z,8.80
2018-11-07T01:54:35.926Z,9.53
2018-11-07T01:57:04.780Z,8.97
2018-11-07T01:59:34.940Z,9.47
2018-11-07T02:02:03.715Z,9.58
2018-11-07T02:04:32.429Z,10.53
2018-11-07T02:07:01.644Z,10.13
2018-11-07T02:09:30.182Z,10.30
2018-11-07T02:11:58.850Z,8.17
2018-11-07T02:14:27.412Z,9.07
2018-11-07T02:16:56.199Z,9.00
2018-11-07T02:19:25.440Z,9.80
2018-11-07T02:21:54.525Z,9.50
2018-11-07T02:24:23.135Z,8.80
2018-11-07T02:26:51.940Z,9.03
2018-11-07T02:29:20.687Z,9.43
2018-11-07T02:31:49.606Z,8.87
2018-11-07T02:34:18.231Z,8.40
2018-11-07T02:36:46.915Z,8.87
2018-11-07T02:39:16.400Z,9.00
2018-11-07T02:41:45.091Z,7.80
2018-11-07T02:44:14.246Z,8.93
2018-11-07T02:46:43.437Z,8.70
2018-11-07T02:49:12.165Z,8.00
2018-11-07T02:51:40.616Z,8.33
2018-11-07T02:54:09.358Z,8.00
2018-11-07T02:56:38.197Z,8.57
2018-11-07T02:59:07.504Z,7.70
2018-11-07T03:01:36.288Z,8.78
2018-11-07T03:04:05.165Z,8.70
2018-11-07T03:06:33.705Z,8.10
2018-11-07T03:09:02.304Z,9.10
2018-11-07T03:11:30.945Z,8.20
2018-11-07T03:13:59.396Z,7.70
2018-11-07T03:16:27.901Z,7.30
2018-11-07T03:18:56.687Z,6.80
2018-11-07T03:21:25.686Z,6.87
2018-11-07T03:23:54.210Z,5.83
2018-11-07T03:26:22.644Z,6.20
2018-11-07T03:28:51.222Z,6.20
2018-11-07T03:31:19.775Z,6.57
2018-11-07T03:33:48.353Z,6.90
2018-11-07T03:36:17.274Z,7.20
2018-11-07T03:38:46.244Z,5.70
2018-11-07T03:41:15.041Z,5.80
2018-11-07T03:43:43.753Z,6.30
2018-11-07T03:46:12.225Z,6.45
2018-11-07T03:48:40.944Z,5.80
2018-11-07T03:51:09.506Z,6.80
2018-11-07T03:53:38.055Z,7.60
2018-11-07T03:56:06.527Z,6.90
2018-11-07T03:58:35.569Z,6.20
2018-11-07T04:01:04.474Z,5.50
2018-11-07T04:03:33.118Z,5.40
2018-11-07T04:06:01.730Z,5.10
2018-11-07T04:08:30.411Z,6.10
2018-11-07T04:10:59.086Z,5.93
2018-11-07T04:13:27.607Z,5.83
2018-11-07T04:15:56.047Z,5.53
2018-11-07T04:18:24.894Z,5.80
2018-11-07T04:20:53.779Z,6.27
2018-11-07T04:23:22.504Z,6.03
2018-11-07T04:25:51.078Z,6.33
2018-11-07T04:28:19.808Z,6.60
2018-11-07T04:30:48.189Z,6.10
2018-11-07T04:33:17.061Z,7.07
2018-11-07T04:35:45.585Z,6.83
2018-11-07T04:38:14.151Z,6.67
2018-11-07T04:40:42.824Z,6.93
2018-11-07T04:43:11.449Z,6.33
2018-11-07T04:45:39.941Z,6.60
2018-11-07T04:48:09.165Z,6.60
2018-11-07T04:50:37.974Z,7.08
2018-11-07T04:53:06.462Z,7.20
2018-11-07T04:55:35.177Z,7.50
2018-11-07T04:58:03.761Z,7.60
2018-11-07T05:00:32.567Z,7.53
2018-11-07T05:03:01.091Z,7.00
2018-11-07T05:05:29.761Z,6.80
2018-11-07T05:07:58.286Z,7.40
2018-11-07T05:10:26.748Z,10.23
2018-11-07T05:12:55.454Z,7.17
2018-11-07T05:15:24.297Z,6.73
2018-11-07T05:17:53.223Z,10.93
2018-11-07T05:20:22.926Z,10.63
2018-11-07T05:22:51.488Z,11.03
2018-11-07T05:25:20.318Z,9.70
2018-11-07T05:27:48.910Z,10.10
2018-11-07T05:30:17.450Z,8.97
2018-11-07T05:32:46.406Z,8.43
2018-11-07T05:35:16.186Z,8.50
2018-11-07T05:37:44.848Z,8.63
2018-11-07T05:40:13.767Z,9.53
2018-11-07T05:42:42.719Z,9.30
2018-11-07T05:45:11.182Z,8.90
2018-11-07T05:47:40.386Z,8.63
2018-11-07T05:50:09.727Z,6.87
2018-11-07T05:52:39.248Z,7.80
2018-11-07T05:55:08.417Z,7.15
2018-11-07T05:57:37.256Z,6.83
2018-11-07T06:00:08.118Z,6.63
2018-11-07T06:02:37.017Z,7.50
2018-11-07T06:05:08.080Z,7.30
2018-11-07T06:07:42.372Z,6.73
2018-11-07T06:10:12.778Z,6.20
2018-11-07T06:12:41.638Z,6.50
2018-11-07T06:15:11.339Z,7.20
2018-11-07T06:17:40.788Z,7.30
2018-11-07T06:20:11.055Z,6.90
2018-11-07T06:22:40.433Z,8.27
2018-11-07T06:25:09.131Z,6.73
2018-11-07T06:27:37.898Z,6.90
2018-11-07T06:30:09.415Z,7.50
2018-11-07T06:32:38.416Z,6.80
2018-11-07T06:35:09.413Z,6.00
2018-11-07T06:37:38.447Z,6.17
2018-11-07T06:40:09.582Z,6.80
2018-11-07T06:42:38.965Z,6.57
2018-11-07T06:45:08.370Z,9.17
2018-11-07T06:47:37.196Z,7.73
2018-11-07T06:50:08.666Z,9.33
2018-11-07T06:52:38.192Z,8.53
2018-11-07T06:55:08.024Z,8.47
2018-11-07T06:57:36.833Z,8.60
2018-11-07T07:00:15.140Z,8.27
2018-11-07T07:03:33.032Z,8.23
2018-11-07T07:06:03.181Z,8.00
2018-11-07T07:08:32.255Z,7.42
2018-11-07T07:11:01.557Z,7.70
2018-11-07T07:13:31.841Z,8.00
2018-11-07T07:16:00.622Z,8.60
2018-11-07T07:18:30.048Z,8.33
2018-11-07T07:20:59.102Z,7.97
2018-11-07T07:23:28.350Z,7.87
2018-11-07T07:25:57.406Z,6.60
2018-11-07T07:28:26.647Z,7.50
2018-11-07T07:30:55.745Z,7.70
2018-11-07T07:33:25.191Z,7.60
2018-11-07T07:35:56.544Z,8.05
2018-11-07T07:38:25.490Z,7.50
2018-11-07T07:40:54.347Z,7.60
2018-11-07T07:43:23.641Z,8.93
2018-11-07T07:45:52.892Z,9.45
2018-11-07T07:48:21.914Z,10.20
2018-11-07T07:50:52.017Z,10.20
2018-11-07T07:53:20.955Z,9.87
2018-11-07T07:55:50.686Z,9.70
2018-11-07T07:58:19.775Z,10.10
2018-11-07T08:00:48.504Z,10.83
2018-11-07T08:03:17.374Z,10.00
2018-11-07T08:05:46.499Z,10.80
2018-11-07T08:08:15.336Z,10.23
2018-11-07T08:10:44.524Z,10.60
2018-11-07T08:13:13.483Z,7.80
2018-11-07T08:15:42.626Z,9.00
2018-11-07T08:18:11.652Z,9.20
2018-11-07T08:20:40.739Z,8.83
2018-11-07T08:23:10.200Z,11.07
2018-11-07T08:25:39.541Z,15.13
2018-11-07T08:28:08.393Z,16.60
2018-11-07T08:30:37.172Z,16.73
2018-11-07T08:33:06.898Z,35.23
2018-11-07T08:35:35.857Z,33.80
2018-11-07T08:38:04.880Z,31.77
2018-11-07T08:40:33.969Z,23.73
2018-11-07T08:43:02.662Z,23.90
2018-11-07T08:45:31.660Z,27.13
2018-11-07T08:48:00.986Z,28.00
2018-11-07T08:50:29.901Z,22.20
2018-11-07T08:52:59.044Z,19.40
2018-11-07T08:55:27.991Z,10.53
2018-11-07T08:57:56.833Z,6.10
2018-11-07T09:00:26.525Z,6.50
2018-11-07T09:02:55.296Z,6.30
2018-11-07T09:05:24.410Z,6.10
2018-11-07T09:07:53.457Z,6.00
2018-11-07T09:10:23.488Z,5.80
2018-11-07T09:12:52.633Z,5.60
2018-11-07T09:15:22.696Z,6.60
2018-11-07T09:17:52.228Z,5.50
2018-11-07T09:20:22.826Z,6.23
2018-11-07T09:22:51.929Z,6.70
2018-11-07T09:25:21.093Z,5.93
2018-11-07T09:27:50.126Z,6.03
2018-11-07T09:30:20.746Z,5.40
2018-11-07T09:32:49.714Z,8.35
2018-11-07T09:35:19.371Z,7.60
2018-11-07T09:37:47.999Z,6.97
2018-11-07T09:40:18.570Z,7.20
2018-11-07T09:42:48.039Z,7.73
2018-11-07T09:45:18.389Z,6.67
2018-11-07T09:47:48.489Z,7.90
2018-11-07T09:50:18.266Z,7.80
2018-11-07T09:52:48.882Z,7.17
2018-11-07T09:55:19.245Z,7.80
2018-11-07T09:57:48.295Z,7.13
2018-11-07T10:00:18.573Z,6.70
2018-11-07T10:02:47.771Z,7.00
2018-11-07T10:05:18.309Z,7.73
2018-11-07T10:07:47.369Z,7.70
2018-11-07T10:10:17.535Z,8.80
2018-11-07T10:12:46.703Z,9.07
2018-11-07T10:15:15.671Z,9.10
2018-11-07T10:17:44.590Z,8.43
2018-11-07T10:20:16.204Z,7.60
2018-11-07T10:22:45.864Z,6.77
2018-11-07T10:25:15.312Z,7.08
2018-11-07T10:27:46.098Z,6.07
2018-11-07T10:30:18.337Z,6.73
2018-11-07T10:32:48.423Z,7.07
2018-11-07T10:35:18.086Z,6.53
2018-11-07T10:37:47.329Z,5.80
2018-11-07T10:40:18.263Z,5.30
2018-11-07T10:42:48.523Z,5.00
2018-11-07T10:45:21.068Z,4.30
2018-11-07T10:47:50.921Z,2.90
2018-11-07T10:50:20.944Z,4.67
2018-11-07T10:52:50.450Z,3.35
2018-11-07T10:55:20.542Z,2.97
2018-11-07T10:57:49.874Z,2.13
2018-11-07T11:00:24.260Z,2.23
2018-11-07T11:03:31.350Z,2.57
2018-11-07T11:06:00.641Z,2.00
2018-11-07T11:08:30.628Z,2.87
2018-11-07T11:11:01.774Z,2.50
2018-11-07T11:13:30.841Z,2.05
2018-11-07T11:16:00.088Z,2.23
2018-11-07T11:18:30.840Z,2.40
2018-11-07T11:21:00.551Z,2.20
2018-11-07T11:23:29.799Z,2.10
2018-11-07T11:25:58.600Z,1.90
2018-11-07T11:28:27.379Z,1.87
2018-11-07T11:30:56.750Z,2.40
2018-11-07T11:33:25.603Z,2.00
2018-11-07T11:38:56.515Z,2.23
2018-11-07T11:41:39.417Z,2.13
2018-11-07T11:44:33.487Z,1.80
2018-11-07T11:47:24.235Z,2.20
2018-11-07T11:52:57.615Z,1.53
2018-11-07T11:55:40.892Z,1.70
2018-11-07T11:58:46.233Z,1.83
2018-11-07T12:01:52.623Z,1.90
2018-11-07T12:33:20.727Z,2.60
2018-11-07T12:36:05.411Z,3.87
2018-11-07T12:39:07.245Z,2.50
2018-11-07T12:44:53.831Z,2.87
2018-11-07T12:47:36.370Z,2.35
2018-11-07T12:59:40.547Z,2.97
2018-11-07T13:02:44.431Z,2.20
2018-11-07T14:44:18.529Z,2.93
2018-11-07T14:52:05.415Z,6.17
2018-11-07T14:54:55.819Z,3.95
2018-11-07T15:03:19.318Z,4.53
2018-11-07T15:06:04.234Z,4.42
2018-11-07T15:08:38.858Z,5.27
2018-11-07T15:11:14.998Z,8.63
2018-11-07T15:13:46.642Z,5.97
2018-11-07T15:22:46.041Z,4.00
2018-11-07T15:25:22.229Z,4.90
2018-11-07T15:27:58.359Z,4.58
2018-11-07T15:30:29.127Z,5.70
2018-11-07T15:33:03.588Z,5.97
2018-11-07T15:35:35.208Z,5.50
2018-11-07T15:38:06.069Z,5.33
2018-11-07T15:40:37.617Z,4.80
2018-11-07T15:43:07.764Z,7.53
2018-11-07T15:45:37.236Z,5.37
2018-11-07T15:48:08.097Z,5.40
2018-11-07T15:50:42.514Z,4.40
2018-11-07T15:53:11.198Z,4.33
2018-11-07T15:55:46.676Z,7.20
2018-11-07T15:58:16.305Z,5.27
2018-11-07T16:00:46.075Z,4.53
2018-11-07T16:03:23.464Z,6.00
2018-11-07T16:05:52.836Z,5.07
2018-11-07T16:08:23.078Z,6.78
2018-11-07T16:10:52.919Z,5.37
2018-11-07T16:13:22.815Z,4.97
2018-11-07T16:15:52.859Z,5.80
2018-11-07T16:18:22.291Z,6.50
2018-11-07T16:20:52.367Z,4.93
2018-11-07T16:23:21.964Z,5.40
2018-11-07T16:25:52.476Z,5.50
2018-11-07T16:28:21.758Z,7.17
2018-11-07T16:30:50.961Z,9.70
2018-11-07T16:33:20.520Z,6.03
2018-11-07T16:35:50.037Z,6.27
2018-11-07T16:38:21.965Z,7.93
2018-11-07T16:40:51.244Z,7.80
2018-11-07T16:43:20.838Z,6.80
2018-11-07T16:45:49.893Z,6.73
2018-11-07T16:48:18.827Z,7.28
2018-11-07T16:50:47.908Z,5.57
2018-11-07T16:53:16.811Z,6.90
2018-11-07T16:55:45.677Z,5.90
2018-11-07T16:58:20.795Z,5.10
2018-11-07T17:00:49.890Z,4.83
2018-11-07T17:03:19.150Z,4.67
2018-11-07T17:05:48.187Z,4.47
2018-11-07T17:08:16.951Z,4.27
2018-11-07T17:10:45.563Z,3.87
2018-11-07T17:13:14.702Z,4.23
2018-11-07T17:15:43.823Z,4.50
2018-11-07T17:18:12.887Z,3.83
2018-11-07T17:20:42.084Z,4.43
2018-11-07T17:26:03.803Z,10.03
2018-11-07T17:28:33.114Z,9.30
2018-11-07T17:31:02.286Z,3.30
2018-11-07T17:33:31.320Z,3.93
2018-11-07T17:36:00.715Z,3.80
2018-11-07T17:38:39.641Z,6.13
2018-11-07T17:41:14.425Z,4.40
2018-11-07T17:43:48.072Z,3.57
2018-11-07T17:46:17.704Z,4.72
2018-11-07T17:48:46.568Z,4.23
2018-11-07T17:51:15.318Z,5.30
2018-11-07T17:53:44.572Z,4.83
2018-11-07T17:56:13.602Z,7.37
2018-11-07T17:58:42.476Z,6.67
2018-11-07T18:01:11.327Z,8.20
2018-11-07T18:03:40.907Z,10.27
2018-11-07T18:06:09.996Z,8.30
2018-11-07T18:08:40.073Z,8.77
2018-11-07T18:11:14.706Z,8.27
2018-11-07T18:13:43.347Z,8.27
2018-11-07T18:16:12.016Z,7.13
2018-11-07T18:18:41.579Z,6.90
2018-11-07T18:21:10.607Z,8.53
2018-11-07T18:23:39.600Z,7.43
2018-11-07T18:26:08.377Z,7.80
2018-11-07T18:28:37.191Z,6.97
2018-11-07T18:31:06.277Z,9.53
2018-11-07T18:33:35.080Z,9.57
2018-11-07T18:36:03.785Z,9.17
2018-11-07T18:38:32.684Z,8.83
2018-11-07T18:41:01.566Z,10.93
2018-11-07T18:43:30.364Z,9.80
2018-11-07T18:45:59.149Z,9.43
2018-11-07T18:48:27.865Z,9.87
2018-11-07T18:50:56.688Z,8.53
2018-11-07T18:53:25.337Z,8.97
2018-11-07T18:55:54.131Z,10.20
2018-11-07T18:58:22.708Z,8.73
2018-11-07T19:00:51.344Z,9.83
2018-11-07T19:03:20.045Z,9.03
2018-11-07T19:05:48.946Z,9.10
2018-11-07T19:08:17.592Z,9.30
2018-11-07T19:10:46.567Z,10.30
2018-11-07T19:13:15.304Z,9.20
2018-11-07T19:15:44.138Z,9.83
2018-11-07T19:18:13.030Z,10.33
2018-11-07T19:20:41.751Z,11.20
2018-11-07T19:23:10.413Z,11.73
2018-11-07T19:25:39.634Z,10.13
2018-11-07T19:28:08.699Z,11.90
2018-11-07T19:30:37.440Z,12.00
2018-11-07T19:33:06.465Z,14.03
2018-11-07T19:35:35.209Z,15.53
2018-11-07T19:38:03.853Z,17.67
2018-11-07T19:40:32.752Z,16.60
2018-11-07T19:43:01.568Z,15.83
2018-11-07T19:45:30.280Z,15.80
2018-11-07T19:47:59.069Z,14.77
2018-11-07T19:50:27.985Z,14.30
2018-11-07T19:52:56.753Z,13.70
2018-11-07T19:55:25.890Z,15.20
2018-11-07T19:57:59.870Z,15.43
2018-11-07T20:00:28.794Z,15.87
2018-11-07T20:02:57.490Z,16.30
2018-11-07T20:05:26.930Z,15.43
2018-11-07T20:07:55.559Z,16.15
2018-11-07T20:10:24.642Z,15.30
2018-11-07T20:12:53.785Z,20.40
2018-11-07T20:15:22.696Z,19.10
2018-11-07T20:17:51.818Z,19.60
2018-11-07T20:20:20.567Z,19.63
2018-11-07T20:22:49.605Z,18.00
2018-11-07T20:25:18.061Z,17.60
2018-11-07T20:27:47.535Z,16.53
2018-11-07T20:30:17.890Z,18.10
2018-11-07T20:32:46.562Z,17.62
2018-11-07T20:35:16.912Z,18.43
2018-11-07T20:37:46.727Z,17.93
2018-11-07T20:40:18.844Z,19.20
2018-11-07T20:42:47.920Z,19.60
2018-11-07T20:45:17.489Z,19.70
2018-11-07T20:47:46.482Z,18.37
2018-11-07T20:50:16.524Z,18.00
2018-11-07T20:52:45.876Z,17.27
2018-11-07T20:55:17.165Z,17.80
2018-11-07T20:57:45.886Z,18.60
2018-11-07T21:00:17.883Z,19.48
2018-11-07T21:02:49.118Z,19.83
2018-11-07T21:05:18.088Z,20.40
2018-11-07T21:07:46.957Z,16.65
2018-11-07T21:10:17.975Z,18.43
2018-11-07T21:12:46.938Z,18.40
2018-11-07T21:15:16.807Z,17.97
2018-11-07T21:17:46.100Z,14.30
2018-11-07T21:20:14.816Z,18.80
2018-11-07T21:22:43.903Z,17.60
2018-11-07T21:25:13.628Z,13.03
2018-11-07T21:27:42.289Z,13.10
2018-11-07T21:30:12.972Z,17.97
2018-11-07T21:32:42.247Z,17.30
2018-11-07T21:35:11.086Z,18.07
2018-11-07T21:37:40.109Z,17.43
2018-11-07T21:40:10.949Z,16.43
2018-11-07T21:42:40.079Z,16.67
2018-11-07T21:45:10.623Z,15.90
2018-11-07T21:47:40.113Z,15.80
2018-11-07T21:50:10.487Z,16.80
2018-11-07T21:52:39.909Z,16.73
2018-11-07T21:55:08.843Z,16.63
2018-11-07T21:57:38.170Z,17.97
2018-11-07T22:00:11.797Z,16.90
2018-11-07T22:02:40.728Z,16.33
2018-11-07T22:05:10.149Z,17.10
2018-11-07T22:07:39.235Z,16.57
2018-11-07T22:10:08.701Z,18.10
2018-11-07T22:12:37.742Z,17.33
2018-11-07T22:15:06.875Z,15.57
2018-11-07T22:19:00.157Z,18.40
2018-11-07T22:21:28.825Z,17.40
2018-11-07T22:23:57.714Z,18.77
2018-11-07T22:26:26.669Z,18.87
2018-11-07T22:28:55.428Z,17.73
2018-11-07T22:31:24.391Z,18.60
2018-11-07T22:33:53.132Z,17.47
2018-11-07T22:36:21.857Z,18.67
2018-11-07T22:38:50.742Z,18.20
2018-11-07T22:41:21.136Z,19.27
2018-11-07T22:43:49.922Z,20.10
2018-11-07T22:46:18.560Z,20.57
2018-11-07T22:48:47.326Z,21.47
2018-11-07T22:54:08.834Z,20.53
2018-11-07T22:56:37.630Z,20.70
2018-11-07T22:59:06.489Z,21.07
2018-11-07T23:01:41.270Z,20.10
2018-11-07T23:04:10.352Z,21.40
2018-11-07T23:06:39.878Z,20.93
2018-11-07T23:09:11.647Z,20.82
2018-11-07T23:11:41.740Z,20.80
2018-11-07T23:14:12.034Z,18.27
2018-11-07T23:16:41.808Z,17.20
2018-11-07T23:19:11.015Z,17.53
2018-11-07T23:21:40.860Z,16.03
2018-11-07T23:24:10.065Z,17.00
2018-11-07T23:26:38.950Z,16.87
2018-11-07T23:29:09.483Z,17.77
2018-11-07T23:31:38.739Z,16.90
2018-11-07T23:34:07.956Z,16.85
2018-11-07T23:36:39.480Z,15.47
2018-11-07T23:39:10.513Z,17.33
2018-11-07T23:41:39.737Z,17.10
2018-11-07T23:44:09.405Z,18.70
2018-11-07T23:46:38.427Z,19.10
2018-11-07T23:49:07.613Z,21.53
2018-11-07T23:51:41.281Z,20.30
2018-11-07T23:54:12.003Z,17.90
2018-11-07T23:56:41.037Z,16.95
2018-11-07T23:59:10.169Z,16.27
